Wax, Kentucky
Current Conditions -  °F | °C
As of 10:15 AM on Thursday 23 Oct 2014 (Local Time) from KGLW Reporting Station
Clear Clear  
Wind Chill: 52°   Ceiling: Unl
Heat Index: 52°   Visibility: 10mi
Dew Point: 42°   Wind: 6mph
Humidity: 68%   Direction: 110°ESE
Pressure: 30.23"   Gusts: NA
Location:  37.4262°N, 86.1465°W
Report Text: KGLW 231515Z AUTO 11005KT 10SM CLR 11/06 A3023 RMK AO2 T01130055
Loading
Personal Weather Stations






























Interactive Weather Map New forecast layout! Learn more

10-Day Weather Forecast

Advertisements
Track Severe Weather on mobile